sensor_id;sensor_type;location;lat;lon;timestamp;P1;durP1;ratioP1;P2;durP2;ratioP2
21626;SDS011;10975;47.872;12.972;2024-02-21T00:00:16;8.48;;;7.07;;
21626;SDS011;10975;47.872;12.972;2024-02-21T00:02:43;7.20;;;6.50;;
21626;SDS011;10975;47.872;12.972;2024-02-21T00:05:10;7.70;;;6.70;;
21626;SDS011;10975;47.872;12.972;2024-02-21T00:07:37;6.90;;;5.63;;
21626;SDS011;10975;47.872;12.972;2024-02-21T00:10:04;9.93;;;6.57;;
21626;SDS011;10975;47.872;12.972;2024-02-21T00:12:31;7.60;;;6.63;;
21626;SDS011;10975;47.872;12.972;2024-02-21T00:14:58;7.05;;;5.55;;
21626;SDS011;10975;47.872;12.972;2024-02-21T00:17:25;7.25;;;6.53;;
21626;SDS011;10975;47.872;12.972;2024-02-21T00:19:52;7.75;;;6.18;;
21626;SDS011;10975;47.872;12.972;2024-02-21T00:22:19;8.43;;;6.78;;
21626;SDS011;10975;47.872;12.972;2024-02-21T00:24:46;7.72;;;6.38;;
21626;SDS011;10975;47.872;12.972;2024-02-21T00:27:13;7.20;;;6.05;;
21626;SDS011;10975;47.872;12.972;2024-02-21T00:29:39;7.70;;;6.90;;
21626;SDS011;10975;47.872;12.972;2024-02-21T00:32:06;10.00;;;6.00;;
21626;SDS011;10975;47.872;12.972;2024-02-21T00:34:33;7.93;;;6.22;;
21626;SDS011;10975;47.872;12.972;2024-02-21T00:37:01;7.20;;;6.50;;
21626;SDS011;10975;47.872;12.972;2024-02-21T00:39:28;11.90;;;6.53;;
21626;SDS011;10975;47.872;12.972;2024-02-21T00:41:56;9.13;;;6.60;;
21626;SDS011;10975;47.872;12.972;2024-02-21T00:44:23;11.25;;;7.20;;
21626;SDS011;10975;47.872;12.972;2024-02-21T00:46:50;11.10;;;7.25;;
21626;SDS011;10975;47.872;12.972;2024-02-21T00:49:19;9.55;;;7.32;;
21626;SDS011;10975;47.872;12.972;2024-02-21T00:51:46;8.57;;;7.68;;
21626;SDS011;10975;47.872;12.972;2024-02-21T00:54:13;8.10;;;7.03;;
21626;SDS011;10975;47.872;12.972;2024-02-21T00:56:40;10.38;;;6.35;;
21626;SDS011;10975;47.872;12.972;2024-02-21T00:59:08;8.38;;;5.57;;
21626;SDS011;10975;47.872;12.972;2024-02-21T01:01:34;6.18;;;5.57;;
21626;SDS011;10975;47.872;12.972;2024-02-21T01:04:01;8.82;;;7.93;;
21626;SDS011;10975;47.872;12.972;2024-02-21T01:06:28;7.43;;;6.72;;
21626;SDS011;10975;47.872;12.972;2024-02-21T01:08:55;6.00;;;5.28;;
21626;SDS011;10975;47.872;12.972;2024-02-21T01:11:22;8.18;;;6.40;;
21626;SDS011;10975;47.872;12.972;2024-02-21T01:13:49;7.15;;;6.45;;
21626;SDS011;10975;47.872;12.972;2024-02-21T01:16:16;7.65;;;5.97;;
21626;SDS011;10975;47.872;12.972;2024-02-21T01:18:43;8.05;;;6.20;;
21626;SDS011;10975;47.872;12.972;2024-02-21T01:21:10;7.18;;;6.35;;
21626;SDS011;10975;47.872;12.972;2024-02-21T01:23:37;7.10;;;6.32;;
21626;SDS011;10975;47.872;12.972;2024-02-21T01:26:04;8.45;;;7.47;;
21626;SDS011;10975;47.872;12.972;2024-02-21T01:28:31;10.80;;;7.18;;
21626;SDS011;10975;47.872;12.972;2024-02-21T01:30:58;7.10;;;6.07;;
21626;SDS011;10975;47.872;12.972;2024-02-21T01:33:25;7.10;;;6.30;;
21626;SDS011;10975;47.872;12.972;2024-02-21T01:35:52;7.30;;;6.60;;
21626;SDS011;10975;47.872;12.972;2024-02-21T01:38:19;6.68;;;5.95;;
21626;SDS011;10975;47.872;12.972;2024-02-21T01:40:46;9.18;;;6.40;;
21626;SDS011;10975;47.872;12.972;2024-02-21T01:43:17;6.85;;;6.00;;
21626;SDS011;10975;47.872;12.972;2024-02-21T01:45:46;8.35;;;6.47;;
21626;SDS011;10975;47.872;12.972;2024-02-21T01:48:19;6.68;;;6.07;;
21626;SDS011;10975;47.872;12.972;2024-02-21T01:50:46;6.47;;;5.65;;
21626;SDS011;10975;47.872;12.972;2024-02-21T01:53:16;6.78;;;5.22;;
21626;SDS011;10975;47.872;12.972;2024-02-21T01:55:49;6.47;;;5.88;;
21626;SDS011;10975;47.872;12.972;2024-02-21T01:58:16;7.80;;;6.18;;
21626;SDS011;10975;47.872;12.972;2024-02-21T02:00:43;7.80;;;5.85;;
21626;SDS011;10975;47.872;12.972;2024-02-21T02:03:12;7.50;;;6.10;;
21626;SDS011;10975;47.872;12.972;2024-02-21T02:05:46;7.45;;;5.60;;
21626;SDS011;10975;47.872;12.972;2024-02-21T02:08:18;6.00;;;5.10;;
21626;SDS011;10975;47.872;12.972;2024-02-21T02:10:46;7.30;;;5.78;;
21626;SDS011;10975;47.872;12.972;2024-02-21T02:13:13;5.45;;;4.80;;
21626;SDS011;10975;47.872;12.972;2024-02-21T02:15:40;6.57;;;4.72;;
21626;SDS011;10975;47.872;12.972;2024-02-21T02:18:12;6.53;;;5.38;;
21626;SDS011;10975;47.872;12.972;2024-02-21T02:20:40;6.32;;;5.38;;
21626;SDS011;10975;47.872;12.972;2024-02-21T02:23:11;7.32;;;5.53;;
21626;SDS011;10975;47.872;12.972;2024-02-21T02:25:48;7.75;;;4.72;;
21626;SDS011;10975;47.872;12.972;2024-02-21T02:28:18;6.68;;;5.00;;
21626;SDS011;10975;47.872;12.972;2024-02-21T02:30:45;6.35;;;5.55;;
21626;SDS011;10975;47.872;12.972;2024-02-21T02:33:12;5.50;;;4.95;;
21626;SDS011;10975;47.872;12.972;2024-02-21T02:35:39;5.90;;;5.30;;
21626;SDS011;10975;47.872;12.972;2024-02-21T02:38:06;5.75;;;5.10;;
21626;SDS011;10975;47.872;12.972;2024-02-21T02:40:33;7.15;;;5.25;;
21626;SDS011;10975;47.872;12.972;2024-02-21T02:43:01;5.38;;;4.68;;
21626;SDS011;10975;47.872;12.972;2024-02-21T02:45:27;7.07;;;4.88;;
21626;SDS011;10975;47.872;12.972;2024-02-21T02:47:55;5.43;;;4.55;;
21626;SDS011;10975;47.872;12.972;2024-02-21T02:50:23;4.57;;;4.18;;
21626;SDS011;10975;47.872;12.972;2024-02-21T02:52:51;7.05;;;4.25;;
21626;SDS011;10975;47.872;12.972;2024-02-21T02:55:18;5.07;;;4.47;;
21626;SDS011;10975;47.872;12.972;2024-02-21T02:57:45;6.15;;;4.90;;
21626;SDS011;10975;47.872;12.972;2024-02-21T03:00:13;4.70;;;3.88;;
21626;SDS011;10975;47.872;12.972;2024-02-21T03:02:41;7.10;;;4.30;;
21626;SDS011;10975;47.872;12.972;2024-02-21T03:05:13;4.43;;;3.67;;
21626;SDS011;10975;47.872;12.972;2024-02-21T03:07:44;4.05;;;3.58;;
21626;SDS011;10975;47.872;12.972;2024-02-21T03:10:13;5.43;;;3.63;;
21626;SDS011;10975;47.872;12.972;2024-02-21T03:12:40;4.90;;;4.13;;
21626;SDS011;10975;47.872;12.972;2024-02-21T03:15:07;6.63;;;3.75;;
21626;SDS011;10975;47.872;12.972;2024-02-21T03:17:34;4.65;;;3.40;;
21626;SDS011;10975;47.872;12.972;2024-02-21T03:20:02;3.80;;;3.50;;
21626;SDS011;10975;47.872;12.972;2024-02-21T03:22:32;6.70;;;4.10;;
21626;SDS011;10975;47.872;12.972;2024-02-21T03:24:59;5.32;;;3.97;;
21626;SDS011;10975;47.872;12.972;2024-02-21T03:27:26;4.57;;;3.83;;
21626;SDS011;10975;47.872;12.972;2024-02-21T03:29:53;4.55;;;3.88;;
21626;SDS011;10975;47.872;12.972;2024-02-21T03:32:20;4.75;;;3.65;;
21626;SDS011;10975;47.872;12.972;2024-02-21T03:34:47;6.25;;;3.60;;
21626;SDS011;10975;47.872;12.972;2024-02-21T03:37:13;4.13;;;3.72;;
21626;SDS011;10975;47.872;12.972;2024-02-21T03:39:41;3.92;;;3.42;;
21626;SDS011;10975;47.872;12.972;2024-02-21T03:42:08;5.03;;;4.55;;
21626;SDS011;10975;47.872;12.972;2024-02-21T03:44:34;4.38;;;3.70;;
21626;SDS011;10975;47.872;12.972;2024-02-21T03:47:01;5.63;;;3.70;;
21626;SDS011;10975;47.872;12.972;2024-02-21T03:49:28;3.95;;;3.55;;
21626;SDS011;10975;47.872;12.972;2024-02-21T03:51:55;3.95;;;3.65;;
21626;SDS011;10975;47.872;12.972;2024-02-21T03:54:22;5.47;;;4.28;;
21626;SDS011;10975;47.872;12.972;2024-02-21T03:56:49;5.10;;;3.95;;
21626;SDS011;10975;47.872;12.972;2024-02-21T03:59:16;5.03;;;3.80;;
21626;SDS011;10975;47.872;12.972;2024-02-21T04:01:43;5.32;;;3.85;;
21626;SDS011;10975;47.872;12.972;2024-02-21T04:04:10;4.20;;;3.80;;
21626;SDS011;10975;47.872;12.972;2024-02-21T04:06:45;7.25;;;3.92;;
21626;SDS011;10975;47.872;12.972;2024-02-21T04:09:16;3.28;;;2.97;;
21626;SDS011;10975;47.872;12.972;2024-02-21T04:11:43;5.53;;;4.10;;
21626;SDS011;10975;47.872;12.972;2024-02-21T04:14:10;6.93;;;4.18;;
21626;SDS011;10975;47.872;12.972;2024-02-21T04:16:40;4.65;;;4.25;;
21626;SDS011;10975;47.872;12.972;2024-02-21T04:19:07;4.75;;;4.15;;
21626;SDS011;10975;47.872;12.972;2024-02-21T04:21:34;4.72;;;4.15;;
21626;SDS011;10975;47.872;12.972;2024-02-21T04:24:02;5.88;;;3.95;;
21626;SDS011;10975;47.872;12.972;2024-02-21T04:26:32;4.47;;;4.10;;
21626;SDS011;10975;47.872;12.972;2024-02-21T04:28:59;4.57;;;4.18;;
21626;SDS011;10975;47.872;12.972;2024-02-21T04:31:27;5.65;;;4.35;;
21626;SDS011;10975;47.872;12.972;2024-02-21T04:33:54;4.43;;;3.95;;
21626;SDS011;10975;47.872;12.972;2024-02-21T04:36:20;5.60;;;4.72;;
21626;SDS011;10975;47.872;12.972;2024-02-21T04:38:47;3.97;;;3.55;;
21626;SDS011;10975;47.872;12.972;2024-02-21T04:41:15;4.05;;;3.65;;
21626;SDS011;10975;47.872;12.972;2024-02-21T04:43:41;4.38;;;3.97;;
21626;SDS011;10975;47.872;12.972;2024-02-21T04:46:08;6.40;;;4.55;;
21626;SDS011;10975;47.872;12.972;2024-02-21T04:48:36;4.22;;;3.50;;
21626;SDS011;10975;47.872;12.972;2024-02-21T04:51:03;3.65;;;3.35;;
21626;SDS011;10975;47.872;12.972;2024-02-21T04:53:29;7.38;;;3.53;;
21626;SDS011;10975;47.872;12.972;2024-02-21T04:55:56;16.90;;;15.70;;
21626;SDS011;10975;47.872;12.972;2024-02-21T04:58:23;5.72;;;4.75;;
21626;SDS011;10975;47.872;12.972;2024-02-21T05:00:50;4.15;;;3.28;;
21626;SDS011;10975;47.872;12.972;2024-02-21T05:03:17;4.60;;;3.78;;
21626;SDS011;10975;47.872;12.972;2024-02-21T05:05:44;4.90;;;3.40;;
21626;SDS011;10975;47.872;12.972;2024-02-21T05:08:11;4.25;;;3.85;;
21626;SDS011;10975;47.872;12.972;2024-02-21T05:10:37;3.42;;;3.13;;
21626;SDS011;10975;47.872;12.972;2024-02-21T05:13:04;3.95;;;2.95;;
21626;SDS011;10975;47.872;12.972;2024-02-21T05:15:31;3.92;;;3.33;;
21626;SDS011;10975;47.872;12.972;2024-02-21T05:17:58;4.63;;;3.85;;
21626;SDS011;10975;47.872;12.972;2024-02-21T05:20:25;3.53;;;2.67;;
21626;SDS011;10975;47.872;12.972;2024-02-21T05:22:52;4.30;;;2.70;;
21626;SDS011;10975;47.872;12.972;2024-02-21T05:25:18;2.65;;;2.45;;
21626;SDS011;10975;47.872;12.972;2024-02-21T05:27:45;3.45;;;2.47;;
21626;SDS011;10975;47.872;12.972;2024-02-21T05:30:12;4.57;;;2.67;;
21626;SDS011;10975;47.872;12.972;2024-02-21T05:32:39;4.85;;;3.67;;
21626;SDS011;10975;47.872;12.972;2024-02-21T05:35:06;6.03;;;3.20;;
21626;SDS011;10975;47.872;12.972;2024-02-21T05:37:33;3.58;;;2.92;;
21626;SDS011;10975;47.872;12.972;2024-02-21T05:40:00;5.68;;;3.22;;
21626;SDS011;10975;47.872;12.972;2024-02-21T05:42:27;3.55;;;2.83;;
21626;SDS011;10975;47.872;12.972;2024-02-21T05:44:54;3.25;;;2.78;;
21626;SDS011;10975;47.872;12.972;2024-02-21T05:47:20;2.95;;;2.70;;
21626;SDS011;10975;47.872;12.972;2024-02-21T05:49:47;4.03;;;2.42;;
21626;SDS011;10975;47.872;12.972;2024-02-21T05:52:14;2.60;;;2.40;;
21626;SDS011;10975;47.872;12.972;2024-02-21T05:54:42;4.00;;;2.10;;
21626;SDS011;10975;47.872;12.972;2024-02-21T05:57:08;2.40;;;2.20;;
21626;SDS011;10975;47.872;12.972;2024-02-21T05:59:37;4.07;;;2.20;;
21626;SDS011;10975;47.872;12.972;2024-02-21T06:02:06;2.92;;;2.30;;
21626;SDS011;10975;47.872;12.972;2024-02-21T06:04:33;2.70;;;2.50;;
21626;SDS011;10975;47.872;12.972;2024-02-21T06:07:00;3.70;;;3.40;;
21626;SDS011;10975;47.872;12.972;2024-02-21T06:09:28;5.45;;;4.68;;
21626;SDS011;10975;47.872;12.972;2024-02-21T06:11:55;5.82;;;4.95;;
21626;SDS011;10975;47.872;12.972;2024-02-21T06:14:22;6.32;;;5.72;;
21626;SDS011;10975;47.872;12.972;2024-02-21T06:16:49;5.55;;;4.80;;
21626;SDS011;10975;47.872;12.972;2024-02-21T06:19:16;6.10;;;4.07;;
21626;SDS011;10975;47.872;12.972;2024-02-21T06:21:43;5.57;;;3.53;;
21626;SDS011;10975;47.872;12.972;2024-02-21T06:24:10;2.83;;;2.55;;
21626;SDS011;10975;47.872;12.972;2024-02-21T06:26:39;3.90;;;2.55;;
21626;SDS011;10975;47.872;12.972;2024-02-21T06:29:06;5.47;;;2.78;;
21626;SDS011;10975;47.872;12.972;2024-02-21T06:31:34;4.18;;;3.45;;
21626;SDS011;10975;47.872;12.972;2024-02-21T06:34:02;3.80;;;2.90;;
21626;SDS011;10975;47.872;12.972;2024-02-21T06:36:29;3.95;;;3.60;;
21626;SDS011;10975;47.872;12.972;2024-02-21T06:38:56;6.00;;;3.20;;
21626;SDS011;10975;47.872;12.972;2024-02-21T06:41:23;4.50;;;3.70;;
21626;SDS011;10975;47.872;12.972;2024-02-21T06:43:50;4.18;;;3.78;;
21626;SDS011;10975;47.872;12.972;2024-02-21T06:46:26;4.13;;;3.35;;
21626;SDS011;10975;47.872;12.972;2024-02-21T06:49:00;3.80;;;3.35;;
21626;SDS011;10975;47.872;12.972;2024-02-21T06:51:27;4.65;;;3.55;;
21626;SDS011;10975;47.872;12.972;2024-02-21T06:53:54;4.53;;;4.20;;
21626;SDS011;10975;47.872;12.972;2024-02-21T06:56:24;5.10;;;4.35;;
21626;SDS011;10975;47.872;12.972;2024-02-21T06:58:57;4.20;;;3.78;;
21626;SDS011;10975;47.872;12.972;2024-02-21T07:01:24;6.50;;;3.65;;
21626;SDS011;10975;47.872;12.972;2024-02-21T07:03:51;4.70;;;4.35;;
21626;SDS011;10975;47.872;12.972;2024-02-21T07:06:18;5.68;;;4.20;;
21626;SDS011;10975;47.872;12.972;2024-02-21T07:08:45;6.25;;;4.25;;
21626;SDS011;10975;47.872;12.972;2024-02-21T07:11:12;7.97;;;5.95;;
21626;SDS011;10975;47.872;12.972;2024-02-21T07:13:39;7.88;;;7.18;;
21626;SDS011;10975;47.872;12.972;2024-02-21T07:16:06;7.68;;;6.97;;
21626;SDS011;10975;47.872;12.972;2024-02-21T07:18:34;7.90;;;7.10;;
21626;SDS011;10975;47.872;12.972;2024-02-21T07:21:01;9.70;;;6.68;;
21626;SDS011;10975;47.872;12.972;2024-02-21T07:23:28;7.72;;;6.93;;
21626;SDS011;10975;47.872;12.972;2024-02-21T07:25:54;5.88;;;5.28;;
21626;SDS011;10975;47.872;12.972;2024-02-21T07:28:21;6.75;;;4.60;;
21626;SDS011;10975;47.872;12.972;2024-02-21T07:30:48;4.57;;;3.70;;
21626;SDS011;10975;47.872;12.972;2024-02-21T07:33:15;2.85;;;2.53;;
21626;SDS011;10975;47.872;12.972;2024-02-21T07:35:42;4.35;;;2.63;;
21626;SDS011;10975;47.872;12.972;2024-02-21T07:38:11;4.65;;;3.38;;
21626;SDS011;10975;47.872;12.972;2024-02-21T07:40:39;3.83;;;3.53;;
21626;SDS011;10975;47.872;12.972;2024-02-21T07:43:06;3.53;;;3.30;;
21626;SDS011;10975;47.872;12.972;2024-02-21T07:45:33;6.90;;;3.42;;
21626;SDS011;10975;47.872;12.972;2024-02-21T07:48:00;4.72;;;3.72;;
21626;SDS011;10975;47.872;12.972;2024-02-21T07:50:27;5.10;;;4.32;;
21626;SDS011;10975;47.872;12.972;2024-02-21T07:52:54;3.50;;;3.20;;
21626;SDS011;10975;47.872;12.972;2024-02-21T07:55:21;4.07;;;3.22;;
21626;SDS011;10975;47.872;12.972;2024-02-21T07:57:48;4.00;;;3.20;;
21626;SDS011;10975;47.872;12.972;2024-02-21T08:00:16;4.93;;;4.32;;
21626;SDS011;10975;47.872;12.972;2024-02-21T08:02:47;5.53;;;5.03;;
21626;SDS011;10975;47.872;12.972;2024-02-21T08:05:15;5.78;;;4.45;;
21626;SDS011;10975;47.872;12.972;2024-02-21T08:07:42;3.95;;;2.83;;
21626;SDS011;10975;47.872;12.972;2024-02-21T08:10:09;2.10;;;1.90;;
21626;SDS011;10975;47.872;12.972;2024-02-21T08:12:36;3.28;;;1.70;;
21626;SDS011;10975;47.872;12.972;2024-02-21T08:15:03;1.70;;;1.60;;
21626;SDS011;10975;47.872;12.972;2024-02-21T08:17:30;3.17;;;1.85;;
21626;SDS011;10975;47.872;12.972;2024-02-21T08:19:57;3.63;;;2.03;;
21626;SDS011;10975;47.872;12.972;2024-02-21T08:22:24;3.03;;;1.88;;
21626;SDS011;10975;47.872;12.972;2024-02-21T08:24:52;2.33;;;1.75;;
21626;SDS011;10975;47.872;12.972;2024-02-21T08:27:19;2.92;;;2.20;;
21626;SDS011;10975;47.872;12.972;2024-02-21T08:29:46;3.08;;;2.85;;
21626;SDS011;10975;47.872;12.972;2024-02-21T08:32:13;4.38;;;3.60;;
21626;SDS011;10975;47.872;12.972;2024-02-21T08:34:40;6.38;;;4.50;;
21626;SDS011;10975;47.872;12.972;2024-02-21T08:37:07;5.32;;;4.88;;
21626;SDS011;10975;47.872;12.972;2024-02-21T08:39:34;7.38;;;6.75;;
21626;SDS011;10975;47.872;12.972;2024-02-21T08:42:01;7.45;;;6.78;;
21626;SDS011;10975;47.872;12.972;2024-02-21T08:44:28;7.47;;;6.88;;
21626;SDS011;10975;47.872;12.972;2024-02-21T08:46:55;7.63;;;6.90;;
21626;SDS011;10975;47.872;12.972;2024-02-21T08:49:23;8.45;;;7.75;;
21626;SDS011;10975;47.872;12.972;2024-02-21T08:51:59;8.77;;;7.68;;
21626;SDS011;10975;47.872;12.972;2024-02-21T08:54:26;7.70;;;6.90;;
21626;SDS011;10975;47.872;12.972;2024-02-21T08:56:53;7.50;;;6.80;;
21626;SDS011;10975;47.872;12.972;2024-02-21T08:59:21;7.10;;;5.53;;
21626;SDS011;10975;47.872;12.972;2024-02-21T09:01:48;5.20;;;4.80;;
21626;SDS011;10975;47.872;12.972;2024-02-21T09:04:15;4.10;;;3.70;;
21626;SDS011;10975;47.872;12.972;2024-02-21T09:06:42;6.57;;;4.00;;
21626;SDS011;10975;47.872;12.972;2024-02-21T09:09:09;3.22;;;2.92;;
21626;SDS011;10975;47.872;12.972;2024-02-21T09:11:36;2.78;;;2.58;;
21626;SDS011;10975;47.872;12.972;2024-02-21T09:14:03;2.20;;;2.10;;
21626;SDS011;10975;47.872;12.972;2024-02-21T09:16:32;3.13;;;2.33;;
21626;SDS011;10975;47.872;12.972;2024-02-21T09:19:00;2.30;;;2.03;;
21626;SDS011;10975;47.872;12.972;2024-02-21T09:21:27;2.20;;;1.63;;
21626;SDS011;10975;47.872;12.972;2024-02-21T09:23:55;3.58;;;3.28;;
21626;SDS011;10975;47.872;12.972;2024-02-21T09:26:25;2.85;;;2.42;;
21626;SDS011;10975;47.872;12.972;2024-02-21T09:28:52;2.17;;;1.83;;
21626;SDS011;10975;47.872;12.972;2024-02-21T09:31:20;1.85;;;1.60;;
21626;SDS011;10975;47.872;12.972;2024-02-21T09:33:46;2.47;;;1.60;;
21626;SDS011;10975;47.872;12.972;2024-02-21T09:36:13;2.22;;;1.25;;
21626;SDS011;10975;47.872;12.972;2024-02-21T09:38:40;1.42;;;1.33;;
21626;SDS011;10975;47.872;12.972;2024-02-21T09:41:17;2.28;;;1.60;;
21626;SDS011;10975;47.872;12.972;2024-02-21T09:43:51;3.88;;;2.42;;
21626;SDS011;10975;47.872;12.972;2024-02-21T09:46:21;3.10;;;2.50;;
21626;SDS011;10975;47.872;12.972;2024-02-21T09:51:30;2.58;;;2.30;;
21626;SDS011;10975;47.872;12.972;2024-02-21T09:54:00;2.22;;;1.95;;
21626;SDS011;10975;47.872;12.972;2024-02-21T09:56:41;2.55;;;2.03;;
21626;SDS011;10975;47.872;12.972;2024-02-21T09:59:08;2.78;;;2.33;;
21626;SDS011;10975;47.872;12.972;2024-02-21T10:01:37;2.90;;;1.40;;
21626;SDS011;10975;47.872;12.972;2024-02-21T10:04:04;2.03;;;1.73;;
21626;SDS011;10975;47.872;12.972;2024-02-21T10:06:32;2.53;;;1.95;;
21626;SDS011;10975;47.872;12.972;2024-02-21T10:08:59;2.00;;;1.90;;
21626;SDS011;10975;47.872;12.972;2024-02-21T10:11:26;3.20;;;2.35;;
21626;SDS011;10975;47.872;12.972;2024-02-21T10:14:03;2.25;;;1.30;;
21626;SDS011;10975;47.872;12.972;2024-02-21T10:16:33;3.75;;;1.45;;
21626;SDS011;10975;47.872;12.972;2024-02-21T10:19:01;1.75;;;1.20;;
21626;SDS011;10975;47.872;12.972;2024-02-21T10:21:30;1.05;;;0.95;;
21626;SDS011;10975;47.872;12.972;2024-02-21T10:23:57;1.98;;;0.88;;
21626;SDS011;10975;47.872;12.972;2024-02-21T10:26:24;1.50;;;1.10;;
21626;SDS011;10975;47.872;12.972;2024-02-21T10:28:50;2.90;;;1.98;;
21626;SDS011;10975;47.872;12.972;2024-02-21T10:31:25;1.30;;;1.20;;
21626;SDS011;10975;47.872;12.972;2024-02-21T10:33:54;2.30;;;1.35;;
21626;SDS011;10975;47.872;12.972;2024-02-21T10:36:25;2.60;;;1.85;;
21626;SDS011;10975;47.872;12.972;2024-02-21T10:38:53;1.70;;;1.45;;
21626;SDS011;10975;47.872;12.972;2024-02-21T10:41:23;2.03;;;1.33;;
21626;SDS011;10975;47.872;12.972;2024-02-21T10:43:54;3.15;;;2.85;;
21626;SDS011;10975;47.872;12.972;2024-02-21T10:46:38;1.92;;;1.65;;
21626;SDS011;10975;47.872;12.972;2024-02-21T10:49:14;2.28;;;2.08;;
21626;SDS011;10975;47.872;12.972;2024-02-21T10:51:52;2.47;;;2.28;;
21626;SDS011;10975;47.872;12.972;2024-02-21T10:54:48;2.40;;;2.15;;
21626;SDS011;10975;47.872;12.972;2024-02-21T10:57:22;4.15;;;2.10;;
21626;SDS011;10975;47.872;12.972;2024-02-21T10:59:51;3.20;;;1.73;;
21626;SDS011;10975;47.872;12.972;2024-02-21T11:02:18;3.13;;;2.10;;
21626;SDS011;10975;47.872;12.972;2024-02-21T11:04:46;2.25;;;1.75;;
21626;SDS011;10975;47.872;12.972;2024-02-21T11:07:16;2.05;;;1.70;;
21626;SDS011;10975;47.872;12.972;2024-02-21T11:09:50;1.23;;;1.13;;
21626;SDS011;10975;47.872;12.972;2024-02-21T11:12:22;1.90;;;1.10;;
21626;SDS011;10975;47.872;12.972;2024-02-21T11:14:49;1.88;;;1.13;;
21626;SDS011;10975;47.872;12.972;2024-02-21T11:19:53;1.42;;;0.80;;
21626;SDS011;10975;47.872;12.972;2024-02-21T11:22:20;1.75;;;0.95;;
21626;SDS011;10975;47.872;12.972;2024-02-21T11:24:49;4.80;;;1.50;;
21626;SDS011;10975;47.872;12.972;2024-02-21T11:27:18;12.77;;;4.65;;
21626;SDS011;10975;47.872;12.972;2024-02-21T11:29:47;2.45;;;1.30;;
21626;SDS011;10975;47.872;12.972;2024-02-21T11:32:17;2.95;;;1.10;;
21626;SDS011;10975;47.872;12.972;2024-02-21T11:34:53;1.70;;;0.73;;
21626;SDS011;10975;47.872;12.972;2024-02-21T11:37:29;2.00;;;0.80;;
21626;SDS011;10975;47.872;12.972;2024-02-21T11:39:56;1.45;;;0.70;;
21626;SDS011;10975;47.872;12.972;2024-02-21T11:42:27;1.42;;;0.63;;
21626;SDS011;10975;47.872;12.972;2024-02-21T11:44:59;0.70;;;0.70;;
21626;SDS011;10975;47.872;12.972;2024-02-21T11:47:28;1.30;;;0.80;;
21626;SDS011;10975;47.872;12.972;2024-02-21T11:49:55;2.70;;;0.82;;
21626;SDS011;10975;47.872;12.972;2024-02-21T11:52:23;1.05;;;0.60;;
21626;SDS011;10975;47.872;12.972;2024-02-21T11:54:53;0.70;;;0.50;;
21626;SDS011;10975;47.872;12.972;2024-02-21T11:57:22;1.23;;;0.65;;
21626;SDS011;10975;47.872;12.972;2024-02-21T11:59:48;1.08;;;0.47;;
21626;SDS011;10975;47.872;12.972;2024-02-21T12:02:23;0.80;;;0.40;;
21626;SDS011;10975;47.872;12.972;2024-02-21T12:04:50;0.50;;;0.50;;
21626;SDS011;10975;47.872;12.972;2024-02-21T12:07:18;0.93;;;0.50;;
21626;SDS011;10975;47.872;12.972;2024-02-21T12:09:45;0.90;;;0.50;;
21626;SDS011;10975;47.872;12.972;2024-02-21T12:12:12;0.65;;;0.40;;
21626;SDS011;10975;47.872;12.972;2024-02-21T12:14:40;0.95;;;0.70;;
21626;SDS011;10975;47.872;12.972;2024-02-21T12:17:07;1.05;;;0.60;;
21626;SDS011;10975;47.872;12.972;2024-02-21T12:19:34;0.50;;;0.50;;
21626;SDS011;10975;47.872;12.972;2024-02-21T12:22:01;0.60;;;0.50;;
21626;SDS011;10975;47.872;12.972;2024-02-21T12:24:32;0.90;;;0.75;;
21626;SDS011;10975;47.872;12.972;2024-02-21T12:27:00;1.85;;;0.63;;
21626;SDS011;10975;47.872;12.972;2024-02-21T12:29:30;1.48;;;0.85;;
21626;SDS011;10975;47.872;12.972;2024-02-21T12:31:56;1.65;;;0.70;;
21626;SDS011;10975;47.872;12.972;2024-02-21T12:34:23;0.80;;;0.80;;
21626;SDS011;10975;47.872;12.972;2024-02-21T12:36:54;0.50;;;0.50;;
21626;SDS011;10975;47.872;12.972;2024-02-21T12:39:20;0.57;;;0.50;;
21626;SDS011;10975;47.872;12.972;2024-02-21T12:41:47;0.95;;;0.40;;
21626;SDS011;10975;47.872;12.972;2024-02-21T12:44:14;0.82;;;0.60;;
21626;SDS011;10975;47.872;12.972;2024-02-21T12:46:42;0.95;;;0.80;;
21626;SDS011;10975;47.872;12.972;2024-02-21T12:49:09;1.67;;;0.60;;
21626;SDS011;10975;47.872;12.972;2024-02-21T12:51:36;1.67;;;0.90;;
21626;SDS011;10975;47.872;12.972;2024-02-21T12:54:04;0.60;;;0.60;;
21626;SDS011;10975;47.872;12.972;2024-02-21T12:56:31;0.65;;;0.65;;
21626;SDS011;10975;47.872;12.972;2024-02-21T12:58:57;3.30;;;0.93;;
21626;SDS011;10975;47.872;12.972;2024-02-21T13:01:24;28.40;;;20.55;;
21626;SDS011;10975;47.872;12.972;2024-02-21T13:03:52;1.30;;;0.90;;
21626;SDS011;10975;47.872;12.972;2024-02-21T13:06:20;0.55;;;0.52;;
21626;SDS011;10975;47.872;12.972;2024-02-21T13:08:47;2.15;;;0.60;;
21626;SDS011;10975;47.872;12.972;2024-02-21T13:11:14;0.77;;;0.50;;
21626;SDS011;10975;47.872;12.972;2024-02-21T13:13:41;1.02;;;0.52;;
21626;SDS011;10975;47.872;12.972;2024-02-21T13:16:08;1.10;;;0.40;;
21626;SDS011;10975;47.872;12.972;2024-02-21T13:18:36;0.50;;;0.50;;
21626;SDS011;10975;47.872;12.972;2024-02-21T13:21:04;0.60;;;0.45;;
21626;SDS011;10975;47.872;12.972;2024-02-21T13:23:32;1.38;;;0.50;;
21626;SDS011;10975;47.872;12.972;2024-02-21T13:25:59;2.58;;;0.45;;
21626;SDS011;10975;47.872;12.972;2024-02-21T13:28:26;0.77;;;0.57;;
21626;SDS011;10975;47.872;12.972;2024-02-21T13:30:54;0.90;;;0.60;;
21626;SDS011;10975;47.872;12.972;2024-02-21T13:33:20;0.43;;;0.40;;
21626;SDS011;10975;47.872;12.972;2024-02-21T13:35:47;0.93;;;0.60;;
21626;SDS011;10975;47.872;12.972;2024-02-21T13:38:14;1.30;;;0.60;;
21626;SDS011;10975;47.872;12.972;2024-02-21T13:40:41;1.42;;;0.70;;
21626;SDS011;10975;47.872;12.972;2024-02-21T13:43:08;1.02;;;0.70;;
21626;SDS011;10975;47.872;12.972;2024-02-21T13:45:37;1.10;;;0.43;;
21626;SDS011;10975;47.872;12.972;2024-02-21T13:48:04;1.55;;;0.65;;
21626;SDS011;10975;47.872;12.972;2024-02-21T13:50:32;0.77;;;0.50;;
21626;SDS011;10975;47.872;12.972;2024-02-21T13:53:09;2.72;;;0.80;;
21626;SDS011;10975;47.872;12.972;2024-02-21T13:55:36;0.95;;;0.80;;
21626;SDS011;10975;47.872;12.972;2024-02-21T13:58:03;5.10;;;0.70;;
21626;SDS011;10975;47.872;12.972;2024-02-21T14:00:30;0.70;;;0.70;;
21626;SDS011;10975;47.872;12.972;2024-02-21T14:02:59;1.40;;;0.93;;
21626;SDS011;10975;47.872;12.972;2024-02-21T14:05:27;1.75;;;1.00;;
21626;SDS011;10975;47.872;12.972;2024-02-21T14:07:54;0.70;;;0.70;;
21626;SDS011;10975;47.872;12.972;2024-02-21T14:10:21;1.60;;;1.00;;
21626;SDS011;10975;47.872;12.972;2024-02-21T14:12:48;0.43;;;0.40;;
21626;SDS011;10975;47.872;12.972;2024-02-21T14:15:15;0.63;;;0.50;;
21626;SDS011;10975;47.872;12.972;2024-02-21T14:17:42;0.60;;;0.30;;
21626;SDS011;10975;47.872;12.972;2024-02-21T14:20:09;0.50;;;0.45;;
21626;SDS011;10975;47.872;12.972;2024-02-21T14:22:42;0.43;;;0.30;;
21626;SDS011;10975;47.872;12.972;2024-02-21T14:25:09;1.90;;;0.40;;
21626;SDS011;10975;47.872;12.972;2024-02-21T14:27:36;0.93;;;0.40;;
21626;SDS011;10975;47.872;12.972;2024-02-21T14:30:03;0.40;;;0.32;;
21626;SDS011;10975;47.872;12.972;2024-02-21T14:32:30;0.35;;;0.20;;
21626;SDS011;10975;47.872;12.972;2024-02-21T14:34:57;1.27;;;0.30;;
21626;SDS011;10975;47.872;12.972;2024-02-21T14:37:28;0.50;;;0.40;;
21626;SDS011;10975;47.872;12.972;2024-02-21T14:39:55;0.50;;;0.30;;
21626;SDS011;10975;47.872;12.972;2024-02-21T14:59:24;4.03;;;0.57;;